Tiempo atmosférico en la estación meteorológica de Banyalbufar, Illes Balears (60 m.)



Fecha
DESCASC
Temp. máxima en grados centígrados (hora)
DESCASC
Temp. mínima en grados centígrados (hora)
DESCASC
Temp. media en grados centígrados
DESCASC
Racha de viento máxima en m/sg (hora)
DESCASC
Velocidad máxima media en intervalos de 10 minutos(hora)
DESCASC
Precipitaciones diarias en mm
DESCASC
Precipitaciones de 00:00 a 06:00 en mm
DESCASC
Precipitaciones de 06:00 a 12:00 en mm
DESCASC
Precipitaciones de 12:00 a 18:00 en mm
DESCASC
Precipitaciones de 18:00 a 24:00 en mm
DESCASC
06-07-2020 28.5 (10:00) 21 (06:20) 24.8 6.39 (14:50) 4.17 (15:00) 0 0 0 0 0
05-07-2020 27.1 (18:10) 20.4 (06:10) 23.8 6.39 (20:10) 3.61 (19:00) 0 0 0 0 0
04-07-2020 26.3 (18:20) 20.9 (02:30) 23.6 7.78 (15:50) 4.44 (15:40) 0 0 0 0 0
03-07-2020 25.4 (02:40) 21.6 (23:59) 23.5 12.22 (08:00) 7.5 (08:00) 0 0 0 0 0
02-07-2020 27.8 (16:20) 22.7 (00:00) 25.3 6.94 (19:30) 5 (19:30) 0 0 0 0 0
01-07-2020 28.6 (17:00) 23.1 (00:00) 25.9 9.17 (02:20) 5.28 (09:40) 0 0 0 0 0
30-06-2020 28.3 (16:10) 21.5 (00:00) 24.9 5.83 (21:40) 3.33 (00:40) 0 0 0 0 0
29-06-2020 26.6 (16:10) 21.5 (00:00) 24.1 3.61 (23:50) 2.78 (23:59) 0 0 0 0 0
28-06-2020 27.2 (19:10) 22.1 (00:00) 24.7 6.11 (10:50) 3.89 (10:50) 0 0 0 0 0
27-06-2020 26.1 (17:50) 22.1 (00:00) 24.1 7.78 (00:50) 3.61 (00:40) 0 0 0 0 0
26-06-2020 28 (17:00) 22.8 (00:00) 25.4 7.22 (23:50) 3.06 (23:50) 0 0 0 0 0
25-06-2020 29.1 (18:40) 21.4 (00:00) 25.3 6.67 (16:40) 4.44 (11:10) 0 0 0 0 0
24-06-2020 27.7 (17:30) 20.2 (00:00) 24 5 (15:00) 2.78 (15:10) 0 0 0 0 0
23-06-2020 25.4 (16:40) 20.4 (00:00) 22.9 6.11 (19:10) 4.17 (17:30) 0 0 0 0 0
22-06-2020 26.6 (16:40) 20.6 (00:00) 23.6 7.5 (18:20) 5 (18:10) 0 0 0 0 0
21-06-2020 26.1 (20:10) 18.9 (00:00) 22.5 5 (23:40) 2.78 (05:50) 0 0 0 0 0
20-06-2020 25.6 (15:20) 19.3 (00:00) 22.4 7.5 (17:30) 4.72 (16:40) 0 0 0 0 0
19-06-2020 24.8 (20:40) 19.8 (00:00) 22.3 6.67 (19:00) 4.44 (18:30) 0 0 0 0 0
18-06-2020 24.4 (18:50) 19.8 (00:00) 22.1 8.89 (14:00) 6.11 (16:10) 0 0 0 0 0
17-06-2020 23.7 (14:30) 18.8 (00:00) 21.3 5.28 (20:40) 3.33 (20:40) 0 0 0 0 0
16-06-2020 24.5 (15:00) 19.3 (00:00) 21.9 6.39 (11:10) 4.44 (13:00) 0 0 0 0 0
15-06-2020 24.1 (18:40) 18.6 (00:00) 21.4 6.11 (08:20) 3.89 (08:30) 0 0 0 0 0
14-06-2020 23.9 (17:00) 17.7 (00:00) 20.8 5.28 (10:30) 3.89 (10:30) 0 0 0 0 0
13-06-2020 23.7 (15:10) 19 (00:00) 21.4 9.72 (05:30) 6.11 (05:30) 0 0 0 0 0
12-06-2020 25.8 (19:20) 19 (00:00) 22.4 17.22 (02:00) 10 (01:50) 0 0 0 0 0
11-06-2020 26.9 (16:10) 17.9 (00:00) 22.4 15.56 (23:30) 8.33 (19:30) 0 0 0 0 0
10-06-2020 22.1 (18:40) 15.5 (00:00) 18.8 4.44 (14:20) 3.33 (02:20) 0 0 0 0 0
09-06-2020 21.1 (17:30) 15.3 (00:00) 18.2 6.39 (15:40) 3.61 (09:30) 0 0 0 0 0
08-06-2020 20.7 (20:40) 15.5 (23:50) 18.1 9.72 (08:50) 5 (08:40) 18.8 4 12.6 2.2 0
07-06-2020 23.6 (17:10) 15.8 (00:00) 19.7 15 (15:00) 8.61 (23:00) 22.4 1.8 3.2 0 17.4

Gráficas

Temp. máximas Temp. mínimas Temp. medias Precipitaciones Rachas de viento máximas Velocidades máximas media en intervalos de 10 minutos

Datos horarios

Fecha y hora oficial Temperatura (ºC) Velocidad del viento (km/h) Dirección del viento Racha (km/h) Dirección de racha Precipitación (mm) Presión (hPa) Tendencia (hPa) Humedad (%)
2020-07-06 23:00:00 23.6 7 Sur 10 Sur 0 -- -- 57
2020-07-06 22:00:00 24.4 4 Sudeste 8 Sur 0 -- -- 66
2020-07-06 21:00:00 26.5 3 Noroeste 7 Noroeste 0 -- -- 66
2020-07-06 20:00:00 27.5 4 Norte 8 Norte 0 -- -- 62
2020-07-06 19:00:00 27.4 5 Norte 13 Noroeste 0 -- -- 62
2020-07-06 18:00:00 28.1 8 Norte 15 Noroeste 0 -- -- 60
2020-07-06 17:00:00 27.7 9 Noroeste 22 Noroeste 0 -- -- 63
2020-07-06 16:00:00 27.5 11 Oeste 21 Oeste 0 -- -- 64
2020-07-06 15:00:00 26.9 15 Oeste 23 Noroeste 0 -- -- 66
2020-07-06 14:00:00 26.8 8 Noroeste 15 Noroeste 0 -- -- 66
2020-07-06 13:00:00 26.8 6 Noroeste 15 Oeste 0 -- -- 63
2020-07-06 12:00:00 26.8 7 Noroeste 13 Noroeste 0 -- -- 65
2020-07-06 11:00:00 28.4 3 Norte 6 Nordeste 0 -- -- 52
2020-07-06 10:00:00 28.5 0 Calma 5 Nordeste 0 -- -- 42
2020-07-06 09:00:00 27.9 0 Calma 6 Sur 0 -- -- 47
2020-07-06 08:00:00 24.9 3 Sur 11 Sur 0 -- -- 47
2020-07-06 07:00:00 21.5 8 Sur 13 Sur 0 -- -- 48
2020-07-06 06:00:00 21.1 11 Sur 14 Sur 0 -- -- 45
2020-07-06 05:00:00 21.8 9 Sur 12 Sur 0 -- -- 50
2020-07-06 04:00:00 22 6 Sur 9 Sur 0 -- -- 51
2020-07-06 03:00:00 21.8 6 Sur 12 Sur 0 -- -- 50
2020-07-06 02:00:00 21.7 9 Sur 13 Sur 0 -- -- 52
2020-07-06 01:00:00 22 8 Sur 12 Sur 0 -- -- 58
2020-07-06 00:00:00 22.2 9 Sur 12 Sur 0 -- -- 50
2020-07-05 23:00:00 22.6 9 Sur 12 Sur 0 -- -- 48
2020-07-05 22:00:00 23.2 8 Sur 17 Oeste 0 -- -- 53
2020-07-05 21:00:00 25.3 12 Oeste 23 Oeste 0 -- -- 63
2020-07-05 20:00:00 26.3 10 Oeste 20 Oeste 0 -- -- 60
2020-07-05 19:00:00 26.5 13 Oeste 19 Noroeste 0 -- -- 64
2020-07-05 18:00:00 26.9 8 Noroeste 18 Noroeste 0 -- -- 66
2020-07-05 17:00:00 26.7 9 Noroeste 15 Oeste 0 -- -- 64
2020-07-05 16:00:00 27 7 Noroeste 18 Noroeste 0 -- -- 66
2020-07-05 15:00:00 26.3 9 Noroeste 17 Noroeste 0 -- -- 66
2020-07-05 14:00:00 26.9 6 Noroeste 11 Norte 0 -- -- 65
2020-07-05 13:00:00 25.7 6 Norte 9 Norte 0 -- -- 66
2020-07-05 12:00:00 26.2 4 Norte 7 Norte 0 -- -- 64
2020-07-05 11:00:00 25.6 5 Norte 8 Norte 0 -- -- 66
2020-07-05 10:00:00 25.3 5 Norte 8 Norte 0 -- -- 68
2020-07-05 09:00:00 25.4 2 Norte 5 Este 0 -- -- 66
2020-07-05 08:00:00 24.3 0 Calma 9 Sudeste 0 -- -- 70
2020-07-05 07:00:00 21.1 6 Sudeste 9 Sudeste 0 -- -- 81
2020-07-05 06:00:00 20.5 6 Sur 12 Sur 0 -- -- 84
2020-07-05 05:00:00 20.7 9 Sur 12 Sur 0 -- -- 83
2020-07-05 04:00:00 20.7 9 Sur 12 Sur 0 -- -- 80
2020-07-05 03:00:00 20.9 9 Sur 12 Sur 0 -- -- 81
2020-07-05 02:00:00 21.2 10 Sur 13 Sur 0 -- -- 81
2020-07-05 01:00:00 21.3 8 Sur 10 Sur 0 -- -- 78
2020-07-05 00:00:00 21.6 7 Sur 9 Sur 0 -- -- 76
2020-07-04 23:00:00 22.5 6 Sudeste 10 Sudeste 0 -- -- 76
2020-07-04 22:00:00 23.1 4 Sur 10 Noroeste 0 -- -- 76
2020-07-04 21:00:00 24.8 6 Noroeste 16 Oeste 0 -- -- 71
2020-07-04 20:00:00 25.7 8 Oeste 14 Oeste 0 -- -- 68
2020-07-04 19:00:00 26.3 6 Noroeste 15 Norte 0 -- -- 66
2020-07-04 18:00:00 26 9 Oeste 15 Noroeste 0 -- -- 68
2020-07-04 17:00:00 25.6 9 Oeste 22 Oeste 0 -- -- 68
2020-07-04 16:00:00 25.8 13 Oeste 28 Oeste 0 -- -- 68
2020-07-04 15:00:00 25.7 13 Oeste 20 Oeste 0 -- -- 68
2020-07-04 14:00:00 26 13 Oeste 21 Oeste 0 -- -- 66
2020-07-04 13:00:00 25.4 13 Oeste 22 Oeste 0 -- -- 68
2020-07-04 12:00:00 25.8 11 Oeste 22 Oeste 0 -- -- 67
2020-07-04 11:00:00 25.5 5 Noroeste 11 Noroeste 0 -- -- 63
2020-07-04 10:00:00 24.8 5 Norte 8 Norte 0 -- -- 63
2020-07-04 09:00:00 24.8 3 Norte 5 Norte 0 -- -- 63
2020-07-04 08:00:00 24.9 2 Este 10 Sudoeste 0 -- -- 60
2020-07-04 07:00:00 21.5 9 Sur 12 Sudoeste 0 -- -- 71
2020-07-04 06:00:00 21.6 9 Sudoeste 13 Sudoeste 0 -- -- 68
2020-07-04 05:00:00 21.8 4 Sudoeste 11 Sur 0 -- -- 67
2020-07-04 04:00:00 21.3 9 Sur 14 Sudoeste 0 -- -- 72
2020-07-04 03:00:00 21.1 8 Sur 10 Sur 0 -- -- 72
2020-07-04 02:00:00 21.4 4 Sur 14 Sur 0 -- -- 72
2020-07-04 01:00:00 21.3 6 Sur 12 Sur 0 -- -- 73
2020-07-04 00:00:00 21.6 7 Sur 9 Sur 0 -- -- 74
2020-07-03 23:00:00 22.2 4 Sur 8 Sudeste 0 -- -- 72
2020-07-03 22:00:00 22.5 6 Sur 9 Sudoeste 0 -- -- 70
2020-07-03 21:00:00 24.1 0 Calma 6 Norte 0 -- -- 64
2020-07-03 20:00:00 24.6 5 Norte 15 Norte 0 -- -- 63
2020-07-03 19:00:00 24.5 10 Norte 22 Nordeste 0 -- -- 65
2020-07-03 18:00:00 24.5 13 Norte 21 Norte 0 -- -- 66
2020-07-03 17:00:00 24.7 13 Nordeste 23 Norte 0 -- -- 65
2020-07-03 16:00:00 24.6 14 Norte 25 Nordeste 0 -- -- 65
2020-07-03 15:00:00 24.2 15 Nordeste 31 Nordeste 0 -- -- 67
2020-07-03 14:00:00 23.9 18 Nordeste 31 Nordeste 0 -- -- 72
2020-07-03 13:00:00 23.4 19 Nordeste 34 Nordeste 0 -- -- 72
2020-07-03 12:00:00 23.6 18 Nordeste 41 Nordeste 0 -- -- 71
2020-07-03 11:00:00 23.3 25 Nordeste 41 Nordeste 0 -- -- 70
2020-07-03 10:00:00 23.3 25 Nordeste 42 Nordeste 0 -- -- 69
2020-07-03 09:00:00 23.3 21 Nordeste 40 Nordeste 0 -- -- 70
2020-07-03 08:00:00 23.2 27 Nordeste 44 Nordeste 0 -- -- 71
2020-07-03 07:00:00 24.5 14 Nordeste 24 Nordeste 0 -- -- 60
2020-07-03 06:00:00 24.5 14 Nordeste 24 Nordeste 0 -- -- 68
2020-07-03 05:00:00 24.3 8 Nordeste 24 Nordeste 0 -- -- 73
2020-07-03 04:00:00 25.2 9 Nordeste 19 Sudeste 0 -- -- 71
2020-07-03 03:00:00 25.3 5 Sudeste 18 Sudeste 0 -- -- 73
2020-07-03 02:00:00 24.4 4 Sur 11 Sudeste 0 -- -- 81
2020-07-03 01:00:00 24.1 5 Sur 9 Sur 0 -- -- 82
2020-07-03 00:00:00 24 6 Sur 11 Sudoeste 0 -- -- 81
2020-07-02 23:00:00 24.8 4 Sur 10 Sur 0 -- -- 79
2020-07-02 22:00:00 25.5 4 Nordeste 19 Nordeste 0 -- -- 76
2020-07-02 21:00:00 26 16 Nordeste 24 Nordeste 0 -- -- 78
2020-07-02 20:00:00 26.1 16 Nordeste 25 Nordeste 0 -- -- 77
2020-07-02 19:00:00 26.8 14 Nordeste 22 Nordeste 0 -- -- 73
2020-07-02 18:00:00 27.4 12 Nordeste 20 Norte 0 -- -- 69
2020-07-02 17:00:00 27.8 9 Norte 16 Nordeste 0 -- -- 66
2020-07-02 16:00:00 27.1 11 Norte 16 Norte 0 -- -- 72
2020-07-02 15:00:00 26.6 7 Norte 13 Norte 0 -- -- 74
2020-07-02 14:00:00 26.2 4 Norte 8 Norte 0 -- -- 75
2020-07-02 13:00:00 25.5 4 Norte 12 Noroeste 0 -- -- 78
2020-07-02 12:00:00 25.5 6 Noroeste 14 Noroeste 0 -- -- 79
2020-07-02 11:00:00 26.5 7 Norte 12 Norte 0 -- -- 74
2020-07-02 10:00:00 26.1 5 Noroeste 12 Noroeste 0 -- -- 77
2020-07-02 09:00:00 25.3 4 Noroeste 10 Sudoeste 0 -- -- 82
2020-07-02 08:00:00 25.4 5 Oeste 10 Sur 0 -- -- 79
2020-07-02 07:00:00 22.8 7 Sur 18 Oeste 0 -- -- 74
2020-07-02 06:00:00 24.4 7 Sudoeste 17 Sudoeste 0 -- -- 77
2020-07-02 05:00:00 23.7 5 Sudeste 13 Sur 0 -- -- 59
2020-07-02 04:00:00 23.5 8 Sudoeste 12 Sudoeste 0 -- -- 63
2020-07-02 03:00:00 23.7 4 Sudeste 13 Este 0 -- -- 66
2020-07-02 02:00:00 24.6 5 Sudeste 17 Nordeste 0 -- -- 64
2020-07-02 01:00:00 25.4 4 Norte 10 Sur 0 -- -- 66
2020-07-02 00:00:00 25.4 3 Sudoeste 12 Sur 0 -- -- 56
2020-07-01 23:00:00 23.7 6 Sur 11 Sur 0 -- -- 81
2020-07-01 22:00:00 24 9 Sur 10 Sur 0 -- -- 73
2020-07-01 21:00:00 26.4 3 Norte 7 Norte 0 -- -- 78
2020-07-01 20:00:00 27.3 3 Norte 13 Noroeste 0 -- -- 74
2020-07-01 19:00:00 27.9 6 Noroeste 14 Noroeste 0 -- -- 72
2020-07-01 18:00:00 28 8 Noroeste 16 Oeste 0 -- -- 69
2020-07-01 17:00:00 28.6 8 Noroeste 21 Noroeste 0 -- -- 70
2020-07-01 16:00:00 27.4 13 Oeste 23 Oeste 0 -- -- 75
2020-07-01 15:00:00 27.1 15 Oeste 28 Oeste 0 -- -- 74
2020-07-01 14:00:00 27.2 18 Oeste 31 Oeste 0 -- -- 68
2020-07-01 13:00:00 26.9 16 Oeste 27 Oeste 0 -- -- 66
2020-07-01 12:00:00 27.2 9 Noroeste 22 Oeste 0 -- -- 68
2020-07-01 11:00:00 26.4 14 Oeste 24 Oeste 0 -- -- 79
2020-07-01 10:00:00 27 13 Oeste 27 Oeste 0 -- -- 68
2020-07-01 09:00:00 27.4 2 Norte 12 Oeste 0 -- -- 66
2020-07-01 08:00:00 25.8 3 Este 10 Sur 0 -- -- 69
2020-07-01 07:00:00 23.8 4 Sudeste 14 Sur 0 -- -- 64
2020-07-01 06:00:00 23.8 7 Sur 12 Sur 0 -- -- 57
2020-07-01 05:00:00 23.1 8 Sur 13 Sur 0 -- -- 57
2020-07-01 04:00:00 24.6 5 Sudoeste 31 Nordeste 0 -- -- 61
2020-07-01 03:00:00 27.9 15 Este 33 Este 0 -- -- 38
2020-07-01 02:00:00 23.9 9 Sur 15 Sur 0 -- -- 57
2020-07-01 01:00:00 23.7 9 Sur 15 Sur 0 -- -- 65
2020-07-01 00:00:00 23.5 6 Sur 13 Sudoeste 0 -- -- 72
2020-06-30 23:00:00 24.7 5 Sur 14 Este 0 -- -- 78
2020-06-30 22:00:00 25.2 5 Este 21 Sudeste 0 -- -- 79
2020-06-30 21:00:00 26.1 2 Norte 8 Norte 0 -- -- 72
2020-06-30 20:00:00 26.8 5 Norte 9 Norte 0 -- -- 73
2020-06-30 19:00:00 27 6 Norte 12 Norte 0 -- -- 73
2020-06-30 18:00:00 28.3 5 Norte 10 Norte 0 -- -- 68
2020-06-30 17:00:00 27.5 5 Norte 11 Norte 0 -- -- 69
2020-06-30 16:00:00 27.3 7 Norte 12 Norte 0 -- -- 72
2020-06-30 15:00:00 26.6 7 Norte 18 Norte 0 -- -- 76
2020-06-30 14:00:00 27.2 8 Noroeste 18 Noroeste 0 -- -- 73
2020-06-30 13:00:00 26.5 8 Noroeste 13 Noroeste 0 -- -- 76
2020-06-30 12:00:00 26.4 7 Noroeste 14 Norte 0 -- -- 76
2020-06-30 11:00:00 26.1 8 Noroeste 15 Oeste 0 -- -- 77
2020-06-30 10:00:00 25.6 6 Noroeste 17 Oeste 0 -- -- 73
2020-06-30 09:00:00 26.2 3 Oeste 11 Oeste 0 -- -- 63
2020-06-30 08:00:00 24.4 5 Sur 9 Sudoeste 0 -- -- 65
2020-06-30 07:00:00 22 5 Sudeste 10 Sur 0 -- -- 73
2020-06-30 06:00:00 21.5 8 Sur 12 Sur 0 -- -- 70
2020-06-30 05:00:00 21.7 9 Sur 14 Sur 0 -- -- 68
2020-06-30 04:00:00 22.2 7 Sur 13 Sur 0 -- -- 74
2020-06-30 03:00:00 21.9 9 Sur 13 Sudoeste 0 -- -- 68
2020-06-30 02:00:00 22.1 6 Sur 14 Sur 0 -- -- 64
2020-06-30 01:00:00 22.2 9 Sur 14 Sur 0 -- -- 68
2020-06-30 00:00:00 22.4 10 Sur 13 Sur 0 -- -- 76
2020-06-29 23:00:00 23.1 7 Sur 10 Sur 0 -- -- 85
2020-06-29 22:00:00 24.5 0 Calma 6 Oeste 0 -- -- 83
2020-06-29 21:00:00 24.9 4 Oeste 10 Oeste 0 -- -- 82
2020-06-29 20:00:00 25.4 4 Noroeste 10 Oeste 0 -- -- 79
2020-06-29 19:00:00 25.6 4 Norte 8 Norte 0 -- -- 77
2020-06-29 18:00:00 25.8 3 Norte 11 Norte 0 -- -- 79
2020-06-29 17:00:00 26.1 6 Norte 11 Norte 0 -- -- 79
2020-06-29 16:00:00 26 5 Norte 10 Norte 0 -- -- 77
2020-06-29 15:00:00 25.9 7 Norte 11 Norte 0 -- -- 79
2020-06-29 14:00:00 26.1 6 Norte 12 Norte 0 -- -- 81
2020-06-29 13:00:00 25.6 7 Norte 12 Norte 0 -- -- 80
2020-06-29 12:00:00 26 9 Norte 13 Norte 0 -- -- 78
2020-06-29 11:00:00 25.7 4 Norte 7 Norte 0 -- -- 78
2020-06-29 10:00:00 25.6 4 Norte 6 Noroeste 0 -- -- 75
2020-06-29 09:00:00 25.4 3 Noroeste 6 Norte 0 -- -- 76
2020-06-29 08:00:00 24.1 4 Sur 12 Sur 0 -- -- 75
2020-06-29 07:00:00 21.9 5 Sur 10 Sur 0 -- -- 79
2020-06-29 06:00:00 21.7 6 Sur 12 Sur 0 -- -- 83
2020-06-29 05:00:00 22 8 Sur 11 Sur 0 -- -- 82
2020-06-29 04:00:00 23.1 2 Sur 7 Sur 0 -- -- 84
2020-06-29 03:00:00 22.8 5 Sur 10 Sur 0 -- -- 86
2020-06-29 02:00:00 22.2 7 Sur 9 Sur 0 -- -- 86
2020-06-29 01:00:00 22.6 5 Sur 11 Sur 0 -- -- 85
2020-06-29 00:00:00 22.9 4 Sudeste 11 Sur 0 -- -- 84
2020-06-28 23:00:00 23.8 4 Sudeste 9 Sudeste 0 -- -- 83
2020-06-28 22:00:00 23.9 3 Sur 10 Oeste 0 -- -- 82
2020-06-28 21:00:00 25 5 Oeste 9 Oeste 0 -- -- 80
2020-06-28 20:00:00 25.9 4 Norte 9 Norte 0 -- -- 75
2020-06-28 19:00:00 26.2 5 Norte 9 Norte 0 -- -- 76
2020-06-28 18:00:00 26.1 4 Norte 10 Noroeste 0 -- -- 74
2020-06-28 17:00:00 26.5 6 Norte 13 Norte 0 -- -- 74
2020-06-28 16:00:00 25.8 6 Noroeste 11 Oeste 0 -- -- 76
2020-06-28 15:00:00 25 5 Norte 12 Noroeste 0 -- -- 79
2020-06-28 14:00:00 26.2 6 Norte 11 Noroeste 0 -- -- 73
2020-06-28 13:00:00 25.5 6 Norte 15 Norte 0 -- -- 74
2020-06-28 12:00:00 25.1 12 Norte 20 Norte 0 -- -- 76
2020-06-28 11:00:00 25 12 Norte 22 Norte 0 -- -- 76
2020-06-28 10:00:00 25 12 Nordeste 17 Nordeste 0 -- -- 77
2020-06-28 09:00:00 23.8 10 Nordeste 15 Nordeste 0 -- -- 84
2020-06-28 08:00:00 23.6 6 Nordeste 12 Nordeste 0 -- -- 82
2020-06-28 07:00:00 22.5 5 Sur 9 Sudeste 0 -- -- 86
2020-06-28 06:00:00 22.2 6 Sudeste 11 Sudeste 0 -- -- 84
2020-06-28 05:00:00 22.2 6 Sudeste 9 Este 0 -- -- 83
2020-06-28 04:00:00 22.5 5 Sudeste 9 Sudeste 0 -- -- 82
2020-06-28 03:00:00 22.5 6 Sudeste 11 Sur 0 -- -- 80
2020-06-28 02:00:00 22.6 5 Sudeste 10 Sur 0 -- -- 78
2020-06-28 01:00:00 22.4 8 Sur 10 Sur 0 -- -- 76
2020-06-28 00:00:00 22.6 6 Sur 11 Sur 0 -- -- 76
2020-06-27 23:00:00 23.7 3 Este 12 Nordeste 0 -- -- 79
2020-06-27 22:00:00 23.9 3 Sudeste 14 Este 0 -- -- 80
2020-06-27 21:00:00 24.9 7 Nordeste 15 Norte 0 -- -- 76
2020-06-27 20:00:00 25.5 10 Nordeste 18 Norte 0 -- -- 73
2020-06-27 19:00:00 26 9 Norte 14 Norte 0 -- -- 72
2020-06-27 18:00:00 25.9 9 Norte 15 Norte 0 -- -- 72
2020-06-27 17:00:00 25.7 5 Norte 9 Noroeste 0 -- -- 72
2020-06-27 16:00:00 24.8 4 Norte 8 Norte 0 -- -- 75
2020-06-27 15:00:00 24.5 5 Norte 10 Norte 0 -- -- 77
2020-06-27 14:00:00 24.8 6 Norte 11 Noroeste 0 -- -- 76
2020-06-27 13:00:00 25.5 8 Norte 11 Norte 0 -- -- 74
2020-06-27 12:00:00 24.7 7 Norte 11 Noroeste 0 -- -- 77
2020-06-27 11:00:00 24.6 6 Norte 9 Norte 0 -- -- 76
2020-06-27 10:00:00 25 3 Norte 9 Oeste 0 -- -- 70
2020-06-27 09:00:00 24.5 4 Oeste 8 Oeste 0 -- -- 71
2020-06-27 08:00:00 23.9 6 Sudeste 12 Sudeste 0 -- -- 72
2020-06-27 07:00:00 22.6 5 Sur 9 Sudeste 0 -- -- 73
2020-06-27 06:00:00 22.2 5 Sur 11 Sudeste 0 -- -- 74
2020-06-27 05:00:00 22.3 5 Sur 9 Sur 0 -- -- 73
2020-06-27 04:00:00 22.9 5 Sur 22 Este 0 -- -- 73
2020-06-27 03:00:00 23.5 9 Sudeste 23 Este 0 -- -- 71
2020-06-27 02:00:00 23.7 10 Nordeste 24 Nordeste 0 -- -- 73
2020-06-27 01:00:00 23.7 9 Este 28 Este 0 -- -- 69
2020-06-27 00:00:00 23.9 10 Este 26 Sudeste 0 -- -- 66
2020-06-26 23:00:00 23.1 6 Sur 14 Sur 0 -- -- 72
2020-06-26 22:00:00 23.7 8 Sur 10 Sur 0 -- -- 72
2020-06-26 21:00:00 25.7 3 Norte 8 Norte 0 -- -- 67
2020-06-26 20:00:00 27.4 5 Norte 9 Norte 0 -- -- 63
2020-06-26 19:00:00 26.9 7 Norte 13 Norte 0 -- -- 63
2020-06-26 18:00:00 26.8 6 Norte 10 Norte 0 -- -- 64
2020-06-26 17:00:00 28 6 Norte 10 Norte 0 -- -- 62
2020-06-26 16:00:00 27.3 6 Norte 10 Norte 0 -- -- 63
2020-06-26 15:00:00 26.9 6 Norte 14 Noroeste 0 -- -- 67
2020-06-26 14:00:00 26.8 5 Norte 10 Norte 0 -- -- 67
2020-06-26 13:00:00 26.1 6 Norte 11 Norte 0 -- -- 72
2020-06-26 12:00:00 25.8 5 Noroeste 10 Norte 0 -- -- 72
2020-06-26 11:00:00 25.9 5 Norte 13 Oeste 0 -- -- 64
2020-06-26 10:00:00 26.9 4 Noroeste 9 Oeste 0 -- -- 51
2020-06-26 09:00:00 26.6 0 Calma 5 Sur 0 -- -- 52
2020-06-26 08:00:00 24.8 2 Sur 7 Sur 0 -- -- 50
2020-06-26 07:00:00 24.1 2 Noroeste 14 Este 0 -- -- 43
2020-06-26 06:00:00 23.8 6 Sudeste 10 Este 0 -- -- 44
2020-06-26 05:00:00 23.2 6 Sur 15 Sudeste 0 -- -- 46
2020-06-26 04:00:00 24.1 5 Sudeste 14 Sudeste 0 -- -- 42
2020-06-26 03:00:00 24 6 Este 13 Sudeste 0 -- -- 41
2020-06-26 02:00:00 23.3 7 Sur 13 Sur 0 -- -- 46
2020-06-26 01:00:00 25.2 6 Sudeste 15 Este 0 -- -- 39
2020-06-26 00:00:00 23.9 4 Sur 15 Sur 0 -- -- 47
2020-06-25 23:00:00 24.3 4 Sur 9 Sur 0 -- -- 52
2020-06-25 22:00:00 24.3 6 Sudeste 11 Nordeste 0 -- -- 59
2020-06-25 21:00:00 26.2 4 Norte 9 Nordeste 0 -- -- 57
2020-06-25 20:00:00 27.2 5 Norte 9 Norte 0 -- -- 56
2020-06-25 19:00:00 28.8 4 Noroeste 14 Oeste 0 -- -- 44
2020-06-25 18:00:00 27.8 7 Noroeste 23 Oeste 0 -- -- 52
2020-06-25 17:00:00 26.8 14 Oeste 24 Noroeste 0 -- -- 65
2020-06-25 16:00:00 27.4 6 Noroeste 18 Norte 0 -- -- 64
2020-06-25 15:00:00 27.4 9 Norte 23 Nordeste 0 -- -- 62
2020-06-25 14:00:00 28 12 Nordeste 24 Nordeste 0 -- -- 45
2020-06-25 13:00:00 27.8 12 Nordeste 22 Nordeste 0 -- -- 42
2020-06-25 12:00:00 27.4 13 Nordeste 23 Nordeste 0 -- -- 42
2020-06-25 11:00:00 26.5 15 Nordeste 23 Nordeste 0 -- -- 48
2020-06-25 10:00:00 25.6 14 Nordeste 22 Nordeste 0 -- -- 60
2020-06-25 09:00:00 25.2 11 Este 20 Este 0 -- -- 62
2020-06-25 08:00:00 24.8 4 Este 12 Sudeste 0 -- -- 71
2020-06-25 07:00:00 22.1 8 Sudeste 13 Sur 0 -- -- 72
2020-06-25 06:00:00 21.7 10 Sudoeste 14 Sur 0 -- -- 67
2020-06-25 05:00:00 21.8 8 Sur 17 Sudoeste 0 -- -- 64
2020-06-25 04:00:00 22.9 5 Sur 16 Sudoeste 0 -- -- 51
2020-06-25 03:00:00 23.2 5 Sudoeste 9 Sur 0 -- -- 69
2020-06-25 02:00:00 22.7 6 Sudeste 12 Sudeste 0 -- -- 68
2020-06-25 01:00:00 22.5 7 Sur 12 Sur 0 -- -- 63
2020-06-25 00:00:00 23.2 8 Sur 14 Sur 0 -- -- 57
2020-06-24 23:00:00 23.2 9 Sur 13 Sur 0 -- -- 55
2020-06-24 22:00:00 23.7 4 Sur 9 Sudoeste 0 -- -- 53
2020-06-24 21:00:00 25.2 2 Nordeste 6 Noroeste 0 -- -- 72
2020-06-24 20:00:00 25.8 5 Norte 10 Norte 0 -- -- 70
2020-06-24 19:00:00 25.7 7 Norte 13 Norte 0 -- -- 68
2020-06-24 18:00:00 27.1 6 Norte 13 Norte 0 -- -- 65
2020-06-24 17:00:00 26.3 9 Norte 12 Norte 0 -- -- 65
2020-06-24 16:00:00 26.2 7 Norte 16 Noroeste 0 -- -- 68
2020-06-24 15:00:00 26.3 9 Noroeste 18 Noroeste 0 -- -- 67
2020-06-24 14:00:00 25.8 5 Norte 13 Norte 0 -- -- 67
2020-06-24 13:00:00 25.1 9 Norte 13 Norte 0 -- -- 70
2020-06-24 12:00:00 25 5 Norte 11 Norte 0 -- -- 70
2020-06-24 11:00:00 24.8 6 Norte 11 Norte 0 -- -- 74
2020-06-24 10:00:00 24.6 3 Norte 5 Norte 0 -- -- 74
2020-06-24 09:00:00 24.7 0 Calma 4 Sur 0 -- -- 66
2020-06-24 08:00:00 23.6 3 Sur 13 Sur 0 -- -- 66
2020-06-24 07:00:00 21.4 8 Sur 14 Sur 0 -- -- 67
2020-06-24 06:00:00 21.6 5 Sur 13 Sudeste 0 -- -- 72
2020-06-24 05:00:00 20.3 6 Sur 12 Sur 0 -- -- 80
2020-06-24 04:00:00 20.5 6 Sur 10 Sur 0 -- -- 79
2020-06-24 03:00:00 20.7 8 Sur 12 Sur 0 -- -- 77
2020-06-24 02:00:00 20.9 7 Sur 12 Sur 0 -- -- 77
2020-06-24 01:00:00 21.1 8 Sur 10 Sur 0 -- -- 79
2020-06-24 00:00:00 21.4 6 Sur 12 Sur 0 -- -- 80
2020-06-23 23:00:00 21.9 6 Sur 11 Sur 0 -- -- 80
2020-06-23 22:00:00 22.8 6 Sur 10 Este 0 -- -- 80
2020-06-23 21:00:00 24.5 5 Nordeste 18 Norte 0 -- -- 76
2020-06-23 20:00:00 24.8 12 Norte 22 Norte 0 -- -- 74
2020-06-23 19:00:00 24.8 14 Norte 19 Norte 0 -- -- 74
2020-06-23 18:00:00 25.1 13 Norte 21 Norte 0 -- -- 72
2020-06-23 17:00:00 25 13 Norte 18 Norte 0 -- -- 73
2020-06-23 16:00:00 24.6 11 Norte 15 Norte 0 -- -- 73
2020-06-23 15:00:00 24.9 8 Norte 13 Norte 0 -- -- 72
2020-06-23 14:00:00 24.2 6 Norte 11 Norte 0 -- -- 76
2020-06-23 13:00:00 24.4 6 Norte 10 Norte 0 -- -- 75
2020-06-23 12:00:00 23.7 7 Norte 13 Norte 0 -- -- 79
2020-06-23 11:00:00 23.6 9 Norte 15 Norte 0 -- -- 79
2020-06-23 10:00:00 23.1 6 Norte 14 Norte 0 -- -- 81
2020-06-23 09:00:00 23.6 8 Nordeste 14 Nordeste 0 -- -- 78
2020-06-23 08:00:00 22.3 5 Sudeste 12 Sudeste 0 -- -- 81
2020-06-23 07:00:00 20.9 4 Sudeste 10 Sudeste 0 -- -- 73
2020-06-23 06:00:00 20.7 8 Sudeste 12 Sudeste 0 -- -- 77
2020-06-23 05:00:00 20.9 6 Sudeste 11 Sudeste 0 -- -- 81
2020-06-23 04:00:00 21 5 Sudeste 10 Sudeste 0 -- -- 81
2020-06-23 03:00:00 21.7 6 Sudeste 11 Sudeste 0 -- -- 82
2020-06-23 02:00:00 22.2 8 Sudeste 14 Sudeste 0 -- -- 79
2020-06-23 01:00:00 21.7 6 Sur 10 Sudeste 0 -- -- 73
2020-06-23 00:00:00 21.3 9 Sur 13 Sur 0 -- -- 70
2020-06-22 23:00:00 21.7 9 Sur 12 Sur 0 -- -- 70
2020-06-22 22:00:00 23.3 4 Sudeste 12 Oeste 0 -- -- 71
2020-06-22 21:00:00 24.7 10 Oeste 19 Oeste 0 -- -- 68
2020-06-22 20:00:00 25.8 8 Oeste 22 Noroeste 0 -- -- 63
2020-06-22 19:00:00 25.7 13 Oeste 27 Noroeste 0 -- -- 60
2020-06-22 18:00:00 25.7 15 Oeste 26 Noroeste 0 -- -- 59
2020-06-22 17:00:00 26 8 Noroeste 18 Noroeste 0 -- -- 59
2020-06-22 16:00:00 25.3 7 Norte 12 Norte 0 -- -- 66
2020-06-22 15:00:00 25.3 5 Norte 15 Noroeste 0 -- -- 71
2020-06-22 14:00:00 24.5 8 Norte 12 Norte 0 -- -- 75
2020-06-22 13:00:00 24.5 6 Norte 12 Norte 0 -- -- 73
2020-06-22 12:00:00 23.8 8 Norte 12 Norte 0 -- -- 79
2020-06-22 11:00:00 24.9 3 Norte 12 Nordeste 0 -- -- 73
2020-06-22 10:00:00 24.1 8 Norte 12 Norte 0 -- -- 71
2020-06-22 09:00:00 25 3 Norte 5 Sudeste 0 -- -- 59
2020-06-22 08:00:00 24.7 0 Calma 10 Sur 0 -- -- 59
2020-06-22 07:00:00 21.1 5 Sudeste 10 Sur 0 -- -- 66
2020-06-22 06:00:00 20.6 5 Sur 11 Sur 0 -- -- 69
2020-06-22 05:00:00 21 6 Sur 12 Sur 0 -- -- 71
2020-06-22 04:00:00 20.6 7 Sur 10 Sur 0 -- -- 67
2020-06-22 03:00:00 21.4 6 Sur 9 Sudeste 0 -- -- 77
2020-06-22 02:00:00 22.2 5 Sudeste 11 Sudeste 0 -- -- 81
2020-06-22 01:00:00 22.7 7 Este 17 Nordeste 0 -- -- 78
2020-06-22 00:00:00 23.2 6 Sudeste 18 Nordeste 0 -- -- 75
2020-06-21 23:00:00 22.8 6 Sur 13 Sur 0 -- -- 57
2020-06-21 22:00:00 23 5 Sur 10 Sur 0 -- -- 61
2020-06-21 21:00:00 24.7 4 Nordeste 6 Nordeste 0 -- -- 65
2020-06-21 20:00:00 25.8 4 Norte 12 Norte 0 -- -- 60
2020-06-21 19:00:00 25.7 8 Norte 14 Norte 0 -- -- 62
2020-06-21 18:00:00 25.8 7 Nordeste 12 Norte 0 -- -- 61
2020-06-21 17:00:00 25.6 7 Norte 12 Norte 0 -- -- 60
2020-06-21 16:00:00 25.3 8 Norte 16 Norte 0 -- -- 62
2020-06-21 15:00:00 25.5 7 Noroeste 12 Noroeste 0 -- -- 62
2020-06-21 14:00:00 25.1 5 Norte 10 Norte 0 -- -- 60
2020-06-21 13:00:00 24.7 6 Norte 11 Norte 0 -- -- 56
2020-06-21 12:00:00 24 5 Norte 10 Norte 0 -- -- 62
2020-06-21 11:00:00 23.2 7 Norte 10 Norte 0 -- -- 73
2020-06-21 10:00:00 24.3 3 Norte 4 Norte 0 -- -- 62
2020-06-21 09:00:00 24.4 0 Calma 6 Sudeste 0 -- -- 58
2020-06-21 08:00:00 22.3 3 Sudoeste 12 Sur 0 -- -- 66
2020-06-21 07:00:00 19.1 9 Sur 13 Sur 0 -- -- 67
2020-06-21 06:00:00 19.2 8 Sur 13 Sur 0 -- -- 66
2020-06-21 05:00:00 19.5 8 Sur 13 Sur 0 -- -- 70
2020-06-21 04:00:00 19.5 7 Sur 12 Sur 0 -- -- 70
2020-06-21 03:00:00 19.8 8 Sur 13 Sur 0 -- -- 71
2020-06-21 02:00:00 20.3 9 Sur 12 Sur 0 -- -- 68
2020-06-21 01:00:00 20.8 5 Sur 10 Sur 0 -- -- 71
2020-06-21 00:00:00 21.4 6 Sur 13 Sur 0 -- -- 71
2020-06-20 23:00:00 22 6 Sudeste 12 Sudeste 0 -- -- 74
2020-06-20 22:00:00 22.1 6 Sur 10 Sur 0 -- -- 73
2020-06-20 21:00:00 23.8 0 Calma 15 Oeste 0 -- -- 74
2020-06-20 20:00:00 24.5 8 Oeste 20 Oeste 0 -- -- 70
2020-06-20 19:00:00 25.4 8 Noroeste 20 Oeste 0 -- -- 64
2020-06-20 18:00:00 24.6 12 Oeste 27 Oeste 0 -- -- 66
2020-06-20 17:00:00 25 14 Oeste 27 Sudoeste 0 -- -- 63
2020-06-20 16:00:00 25.4 7 Noroeste 15 Oeste 0 -- -- 62
2020-06-20 15:00:00 24.5 6 Norte 15 Norte 0 -- -- 72
2020-06-20 14:00:00 25 9 Norte 16 Norte 0 -- -- 67
2020-06-20 13:00:00 23.7 7 Norte 13 Norte 0 -- -- 74
2020-06-20 12:00:00 23.3 5 Norte 9 Norte 0 -- -- 74
2020-06-20 11:00:00 23.4 5 Norte 15 Noroeste 0 -- -- 75
2020-06-20 10:00:00 23 11 Oeste 17 Oeste 0 -- -- 74
2020-06-20 09:00:00 23.4 5 Oeste 10 Oeste 0 -- -- 70
2020-06-20 08:00:00 23 2 Sudeste 8 Sur 0 -- -- 72
2020-06-20 07:00:00 19.4 8 Sur 10 Sur 0 -- -- 85
2020-06-20 06:00:00 19.3 6 Sur 11 Sur 0 -- -- 84
2020-06-20 05:00:00 19.4 9 Sur 11 Sur 0 -- -- 82
2020-06-20 04:00:00 20.4 9 Sur 15 Sur 0 -- -- 80
2020-06-20 03:00:00 19.7 7 Sur 12 Sur 0 -- -- 81
2020-06-20 02:00:00 19.6 5 Sur 12 Sur 0 -- -- 79
2020-06-20 01:00:00 19.9 5 Sur 11 Sur 0 -- -- 78
2020-06-20 00:00:00 20.1 8 Sur 11 Sur 0 -- -- 78
2020-06-19 23:00:00 20.8 7 Sur 10 Sur 0 -- -- 76
2020-06-19 22:00:00 22 5 Sudoeste 11 Sur 0 -- -- 72
2020-06-19 21:00:00 23.6 5 Norte 13 Sudoeste 0 -- -- 70
2020-06-19 20:00:00 23.6 9 Oeste 23 Sudoeste 0 -- -- 75
2020-06-19 19:00:00 23.8 11 Oeste 24 Oeste 0 -- -- 73
2020-06-19 18:00:00 23.8 14 Oeste 21 Oeste 0 -- -- 73
2020-06-19 17:00:00 24.3 10 Oeste 18 Oeste 0 -- -- 69
2020-06-19 16:00:00 23.9 12 Oeste 19 Oeste 0 -- -- 67
2020-06-19 15:00:00 23.4 11 Norte 21 Norte 0 -- -- 72
2020-06-19 14:00:00 23.9 11 Norte 20 Norte 0 -- -- 70
2020-06-19 13:00:00 22.9 15 Norte 23 Norte 0 -- -- 72
2020-06-19 12:00:00 22.4 12 Nordeste 20 Norte 0 -- -- 75
2020-06-19 11:00:00 23.1 6 Norte 11 Norte 0 -- -- 78
2020-06-19 10:00:00 21.9 5 Norte 10 Nordeste 0 -- -- 81
2020-06-19 09:00:00 21.6 9 Norte 15 Norte 0 -- -- 82
2020-06-19 08:00:00 20.9 3 Sur 9 Sur 0 -- -- 81
2020-06-19 07:00:00 20.7 4 Sur 9 Sur 0 -- -- 79
2020-06-19 06:00:00 20 5 Sur 10 Sur 0 -- -- 82
2020-06-19 05:00:00 19.8 9 Sur 11 Sur 0 -- -- 83
2020-06-19 04:00:00 20.2 6 Sur 12 Sur 0 -- -- 84
2020-06-19 03:00:00 20.3 7 Sur 12 Sur 0 -- -- 82
2020-06-19 02:00:00 20.8 8 Sudoeste 10 Sur 0 -- -- 83
2020-06-19 01:00:00 20.8 6 Sudoeste 12 Sur 0 -- -- 81
2020-06-19 00:00:00 21.8 0 Calma 6 Este 0 -- -- 78
2020-06-18 23:00:00 21.1 6 Sur 11 Sur 0 -- -- 81
2020-06-18 22:00:00 20.9 7 Sur 10 Sur 0 -- -- 81
2020-06-18 21:00:00 22.4 0 Calma 5 Norte 0 -- -- 78
2020-06-18 20:00:00 22.5 2 Noroeste 14 Norte 0 -- -- 78
2020-06-18 19:00:00 24 9 Norte 22 Norte 0 -- -- 73
2020-06-18 18:00:00 23.2 13 Nordeste 25 Nordeste 0 -- -- 75
2020-06-18 17:00:00 22.8 15 Nordeste 32 Nordeste 0 -- -- 76
2020-06-18 16:00:00 22 21 Nordeste 31 Nordeste 0 -- -- 76
2020-06-18 15:00:00 21.3 19 Nordeste 31 Nordeste 0 -- -- 78
2020-06-18 14:00:00 21 20 Nordeste 32 Nordeste 0 -- -- 82
2020-06-18 13:00:00 22.4 12 Nordeste 17 Nordeste 0 -- -- 77
2020-06-18 12:00:00 22.2 8 Norte 11 Norte 0 -- -- 78
2020-06-18 11:00:00 22.1 5 Norte 10 Norte 0 -- -- 77
2020-06-18 10:00:00 22.8 7 Norte 19 Norte 0 -- -- 72
2020-06-18 09:00:00 22.5 6 Noroeste 10 Noroeste 0 -- -- 71
2020-06-18 08:00:00 22.5 3 Nordeste 13 Nordeste 0 -- -- 72
2020-06-18 07:00:00 20 4 Sur 10 Sur 0 -- -- 82
2020-06-18 06:00:00 20.2 5 Sudeste 13 Sudeste 0 -- -- 82
2020-06-18 05:00:00 20.2 5 Sur 10 Sur 0 -- -- 78
2020-06-18 04:00:00 20.5 4 Sur 9 Sur 0 -- -- 77
2020-06-18 03:00:00 20.4 5 Sur 9 Sur 0 -- -- 78
2020-06-18 02:00:00 20.2 7 Sur 9 Sur 0 -- -- 78
2020-06-18 01:00:00 19.8 6 Sur 10 Sur 0 -- -- 80
2020-06-18 00:00:00 20.5 5 Sur 8 Sur 0 -- -- 78
2020-06-17 23:00:00 20.9 3 Sudeste 11 Sudoeste 0 -- -- 75
2020-06-17 22:00:00 21.2 7 Sudoeste 15 Norte 0 -- -- 72
2020-06-17 21:00:00 22.2 6 Norte 19 Nordeste 0 -- -- 69
2020-06-17 20:00:00 22.6 6 Norte 16 Nordeste 0 -- -- 64
2020-06-17 19:00:00 23.4 10 Norte 18 Norte 0 -- -- 62
2020-06-17 18:00:00 23.4 10 Norte 18 Norte 0 -- -- 61
2020-06-17 17:00:00 23.3 10 Norte 16 Norte 0 -- -- 62
2020-06-17 16:00:00 22.8 9 Norte 15 Norte 0 -- -- 67
2020-06-17 15:00:00 22.8 6 Norte 12 Norte 0 -- -- 67
2020-06-17 14:00:00 23 8 Norte 12 Norte 0 -- -- 66
2020-06-17 13:00:00 22.4 5 Norte 10 Norte 0 -- -- 68
2020-06-17 12:00:00 21.6 5 Norte 10 Noroeste 0 -- -- 71
2020-06-17 11:00:00 22.2 6 Noroeste 12 Noroeste 0 -- -- 67
2020-06-17 10:00:00 22.3 5 Noroeste 10 Noroeste 0 -- -- 66
2020-06-17 09:00:00 21.8 5 Sudoeste 8 Sudoeste 0 -- -- 66
2020-06-17 08:00:00 20.9 4 Sur 11 Sudeste 0 -- -- 66
2020-06-17 07:00:00 19 5 Sudeste 12 Este 0 -- -- 66
2020-06-17 06:00:00 19.2 6 Sur 12 Sudeste 0 -- -- 71
2020-06-17 05:00:00 18.8 7 Sudeste 12 Este 0 -- -- 68
2020-06-17 04:00:00 18.9 7 Sudeste 12 Sur 0 -- -- 70
2020-06-17 03:00:00 19.6 4 Sudeste 8 Sudeste 0 -- -- 84
2020-06-17 02:00:00 19.3 8 Sur 11 Sur 0 -- -- 81
2020-06-17 01:00:00 20.6 4 Sudeste 12 Sudoeste 0 -- -- 70
2020-06-17 00:00:00 20.6 0 Calma 8 Sur 0 -- -- 73
2020-06-16 23:00:00 19.6 9 Sur 12 Sudeste 0 -- -- 79
2020-06-16 22:00:00 21 4 Este 10 Sudeste 0 -- -- 76
2020-06-16 21:00:00 21.6 7 Nordeste 23 Nordeste 0 -- -- 75
2020-06-16 20:00:00 22.1 14 Nordeste 21 Nordeste 0 -- -- 73
2020-06-16 19:00:00 22.9 11 Nordeste 22 Nordeste 0 -- -- 69
2020-06-16 18:00:00 22.5 12 Nordeste 21 Nordeste 0 -- -- 72
2020-06-16 17:00:00 23.2 10 Norte 14 Norte 0 -- -- 69
2020-06-16 16:00:00 24.3 5 Norte 12 Norte 0 -- -- 59
2020-06-16 15:00:00 24.5 6 Noroeste 11 Noroeste 0 -- -- 60
2020-06-16 14:00:00 23.8 5 Noroeste 19 Norte 0 -- -- 67
2020-06-16 13:00:00 22.5 16 Norte 21 Norte 0 -- -- 75
2020-06-16 12:00:00 23.4 8 Norte 23 Norte 0 -- -- 68
2020-06-16 11:00:00 22.8 13 Norte 21 Norte 0 -- -- 75
2020-06-16 10:00:00 22.6 12 Norte 22 Noroeste 0 -- -- 73
2020-06-16 09:00:00 23.2 6 Oeste 21 Sudeste 0 -- -- 63
2020-06-16 08:00:00 21.6 4 Sur 14 Sudeste 0 -- -- 67
2020-06-16 07:00:00 19.7 6 Sur 10 Sur 0 -- -- 67
2020-06-16 06:00:00 19.7 6 Sur 13 Este 0 -- -- 64
2020-06-16 05:00:00 20 4 Sur 12 Sur 0 -- -- 66
2020-06-16 04:00:00 19.7 6 Sur 13 Sudeste 0 -- -- 61
2020-06-16 03:00:00 19.8 4 Sur 11 Sudeste 0 -- -- 72
2020-06-16 02:00:00 19.9 4 Sur 9 Sur 0 -- -- 74
2020-06-16 01:00:00 19.7 6 Sur 10 Sur 0 -- -- 71
2020-06-16 00:00:00 20.3 5 Sudeste 9 Sur 0 -- -- 64
2020-06-15 23:00:00 20.1 4 Sur 9 Sur 0 -- -- 61
2020-06-15 22:00:00 20.2 8 Sur 9 Sur 0 -- -- 64
2020-06-15 21:00:00 22.5 0 Calma 7 Noroeste 0 -- -- 74
2020-06-15 20:00:00 23.3 4 Norte 10 Noroeste 0 -- -- 71
2020-06-15 19:00:00 23.4 6 Norte 10 Norte 0 -- -- 70
2020-06-15 18:00:00 23.6 6 Norte 11 Norte 0 -- -- 68
2020-06-15 17:00:00 23.6 6 Norte 10 Norte 0 -- -- 70
2020-06-15 16:00:00 23.6 7 Norte 12 Norte 0 -- -- 71
2020-06-15 15:00:00 22.7 7 Norte 11 Norte 0 -- -- 72
2020-06-15 14:00:00 23.3 6 Norte 12 Norte 0 -- -- 71
2020-06-15 13:00:00 22.3 8 Norte 12 Norte 0 -- -- 75
2020-06-15 12:00:00 22.2 9 Norte 16 Norte 0 -- -- 77
2020-06-15 11:00:00 23.1 12 Norte 19 Noroeste 0 -- -- 69
2020-06-15 10:00:00 22.6 4 Norte 12 Noroeste 0 -- -- 65
2020-06-15 09:00:00 22.3 9 Oeste 22 Oeste 0 -- -- 64
2020-06-15 08:00:00 22.4 3 Oeste 14 Sur 0 -- -- 46
2020-06-15 07:00:00 18.6 11 Sur 16 Sudeste 0 -- -- 50
2020-06-15 06:00:00 20.7 9 Sudeste 20 Sudeste 0 -- -- 54
2020-06-15 05:00:00 19.6 6 Sudeste 11 Sur 0 -- -- 43
2020-06-15 04:00:00 19.5 6 Sur 11 Sur 0 -- -- 45
2020-06-15 03:00:00 20.4 5 Sur 9 Sur 0 -- -- 43
2020-06-15 02:00:00 21.3 4 Sudeste 10 Sur 0 -- -- 36
2020-06-15 01:00:00 21.2 2 Sudeste 9 Sur 0 -- -- 42
2020-06-15 00:00:00 20.3 5 Sur 10 Sur 0 -- -- 48
2020-06-14 23:00:00 20.2 6 Sur 10 Sur 0 -- -- 53
2020-06-14 22:00:00 20.9 4 Sudeste 9 Sur 0 -- -- 47
2020-06-14 21:00:00 23.2 2 Oeste 8 Norte 0 -- -- 63
2020-06-14 20:00:00 23.5 4 Norte 12 Norte 0 -- -- 61
2020-06-14 19:00:00 23.1 9 Norte 14 Norte 0 -- -- 66
2020-06-14 18:00:00 23.2 10 Norte 18 Norte 0 -- -- 67
2020-06-14 17:00:00 23.9 9 Norte 16 Norte 0 -- -- 62
2020-06-14 16:00:00 23.1 9 Nordeste 15 Nordeste 0 -- -- 65
2020-06-14 15:00:00 23.2 6 Norte 12 Norte 0 -- -- 64
2020-06-14 14:00:00 23.1 4 Norte 8 Norte 0 -- -- 64
2020-06-14 13:00:00 23.3 4 Norte 11 Noroeste 0 -- -- 59
2020-06-14 12:00:00 22.6 4 Norte 19 Oeste 0 -- -- 66
2020-06-14 11:00:00 22.5 11 Oeste 19 Sudoeste 0 -- -- 67
2020-06-14 10:00:00 22.8 9 Oeste 19 Oeste 0 -- -- 61
2020-06-14 09:00:00 22.7 6 Oeste 12 Sudoeste 0 -- -- 45
2020-06-14 08:00:00 20.3 9 Sur 16 Sur 0 -- -- 55
2020-06-14 07:00:00 19.3 4 Sudeste 15 Este 0 -- -- 61
2020-06-14 06:00:00 19.7 4 Sur 12 Sur 0 -- -- 46
2020-06-14 05:00:00 17.9 9 Sur 12 Sudeste 0 -- -- 54
2020-06-14 04:00:00 18.5 6 Sudeste 12 Sur 0 -- -- 55
2020-06-14 03:00:00 18 9 Sur 14 Sur 0 -- -- 52
2020-06-14 02:00:00 19.1 5 Sur 12 Sur 0 -- -- 50
2020-06-14 01:00:00 19.2 7 Sur 12 Sur 0 -- -- 48
2020-06-14 00:00:00 19.5 8 Sur 13 Sur 0 -- -- 47
2020-06-13 23:00:00 21 5 Sudeste 25 Sudoeste 0 -- -- 39
2020-06-13 22:00:00 21 3 Oeste 18 Oeste 0 -- -- 51
2020-06-13 21:00:00 21.9 11 Oeste 24 Oeste 0 -- -- 55
2020-06-13 20:00:00 22.4 11 Oeste 19 Oeste 0 -- -- 60
2020-06-13 19:00:00 22.5 8 Norte 15 Norte 0 -- -- 52
2020-06-13 18:00:00 23 6 Norte 12 Norte 0 -- -- 50
2020-06-13 17:00:00 23 5 Norte 12 Norte 0 -- -- 48
2020-06-13 16:00:00 23.4 6 Noroeste 14 Oeste 0 -- -- 49
2020-06-13 15:00:00 23.5 8 Noroeste 15 Noroeste 0 -- -- 50
2020-06-13 14:00:00 22.5 11 Norte 21 Norte 0 -- -- 59
2020-06-13 13:00:00 22.5 9 Noroeste 17 Noroeste 0 -- -- 67
2020-06-13 12:00:00 22.2 8 Norte 16 Noroeste 0 -- -- 72
2020-06-13 11:00:00 22.4 11 Noroeste 18 Norte 0 -- -- 68
2020-06-13 10:00:00 22.6 9 Oeste 27 Sudoeste 0 -- -- 65
2020-06-13 09:00:00 22.7 12 Oeste 27 Sudoeste 0 -- -- 45
2020-06-13 08:00:00 21 11 Sur 25 Sudoeste 0 -- -- 50
2020-06-13 07:00:00 21.8 18 Sudoeste 32 Sudoeste 0 -- -- 53
2020-06-13 06:00:00 21.2 17 Sur 35 Sur 0 -- -- 60
2020-06-13 05:00:00 21.6 17 Sur 30 Sudoeste 0 -- -- 50
2020-06-13 04:00:00 21.4 15 Sur 31 Sur 0 -- -- 62
2020-06-13 03:00:00 21.8 20 Sur 34 Sur 0 -- -- 60
2020-06-13 02:00:00 20.2 5 Sur 13 Sur 0 -- -- 55
2020-06-13 01:00:00 19.6 9 Sur 14 Sur 0 -- -- 58
2020-06-13 00:00:00 19 9 Sur 13 Sur 0 -- -- 61
2020-06-12 23:00:00 20.2 6 Sur 13 Sur 0 -- -- 63
2020-06-12 22:00:00 21.7 4 Sudeste 24 Sur 0 -- -- 58
2020-06-12 21:00:00 23.1 12 Sudoeste 37 Sudoeste 0 -- -- 55
2020-06-12 20:00:00 24.2 14 Sur 30 Sur 0 -- -- 54
2020-06-12 19:00:00 25.3 10 Sudoeste 34 Sur 0 -- -- 52
2020-06-12 18:00:00 24 12 Oeste 30 Oeste 0 -- -- 53
2020-06-12 17:00:00 23.4 14 Sudoeste 25 Sudoeste 0 -- -- 57
2020-06-12 16:00:00 23.5 14 Oeste 24 Oeste 0 -- -- 54
2020-06-12 15:00:00 22.7 13 Oeste 28 Noroeste 0 -- -- 57
2020-06-12 14:00:00 22.7 13 Oeste 27 Oeste 0 -- -- 56
2020-06-12 13:00:00 22.9 10 Oeste 32 Sudoeste 0 -- -- 56
2020-06-12 12:00:00 23 18 Oeste 34 Oeste 0 -- -- 47
2020-06-12 11:00:00 23.2 16 Sudoeste 36 Oeste 0 -- -- 51
2020-06-12 10:00:00 23.2 16 Oeste 43 Sudoeste 0 -- -- 56
2020-06-12 09:00:00 23.1 20 Sudoeste 39 Oeste 0 -- -- 55
2020-06-12 08:00:00 23.2 14 Sudoeste 43 Sudoeste 0 -- -- 52
2020-06-12 07:00:00 22.5 9 Sudoeste 36 Sudoeste 0 -- -- 49
2020-06-12 06:00:00 22.6 17 Sudoeste 35 Sur 0 -- -- 50
2020-06-12 05:00:00 22.5 18 Sur 49 Sur 0 -- -- 53
2020-06-12 04:00:00 21.5 28 Sur 54 Sudoeste 0 -- -- 65
2020-06-12 03:00:00 21.6 32 Sur 61 Sur 0 -- -- 63
2020-06-12 02:00:00 21.4 35 Sur 62 Sur 0 -- -- 65
2020-06-12 01:00:00 23.9 23 Sur 54 Sur 0 -- -- 43
2020-06-12 00:00:00 22.5 27 Sur 56 Sur 0 -- -- 51
2020-06-11 23:00:00 23.3 20 Sur 44 Sudoeste 0 -- -- 43
2020-06-11 22:00:00 23.2 13 Este 46 Sur 0 -- -- 50
2020-06-11 21:00:00 24.5 22 Sur 51 Sudeste 0 -- -- 41
2020-06-11 20:00:00 24.8 22 Sudeste 50 Sudeste 0 -- -- 42
2020-06-11 19:00:00 24.7 14 Sudeste 53 Sudeste 0 -- -- 56
2020-06-11 18:00:00 25.2 22 Sudeste 44 Sudeste 0 -- -- 58
2020-06-11 17:00:00 25.8 20 Sur 46 Sudeste 0 -- -- 56
2020-06-11 16:00:00 26.2 24 Sur 45 Sur 0 -- -- 55
2020-06-11 15:00:00 25.8 18 Sur 47 Sur 0 -- -- 54
2020-06-11 14:00:00 25 14 Sur 42 Sur 0 -- -- 57
2020-06-11 13:00:00 24.1 9 Noroeste 37 Sudoeste 0 -- -- 60
2020-06-11 12:00:00 23.8 11 Oeste 31 Oeste 0 -- -- 58
2020-06-11 11:00:00 23.7 6 Este 22 Sudeste 0 -- -- 62
2020-06-11 10:00:00 22 6 Este 28 Sur 0 -- -- 64
2020-06-11 09:00:00 20.6 13 Sur 39 Sur 0 -- -- 68
2020-06-11 08:00:00 19.9 10 Sur 26 Sur 0 -- -- 67
2020-06-11 07:00:00 18.8 3 Sudeste 9 Sur 0 -- -- 78
2020-06-11 06:00:00 18.4 4 Sudeste 8 Sur 0 -- -- 78
2020-06-11 05:00:00 18.8 5 Sudeste 14 Sudeste 0 -- -- 79
2020-06-11 04:00:00 17.9 6 Sur 13 Sudeste 0 -- -- 83
2020-06-11 03:00:00 19.1 6 Sur 15 Sudoeste 0 -- -- 84
2020-06-11 02:00:00 18.8 5 Sur 9 Sur 0 -- -- 76
2020-06-11 01:00:00 18.6 5 Sur 11 Sur 0 -- -- 76
2020-06-11 00:00:00 18.1 8 Sur 11 Sur 0 -- -- 78
2020-06-10 23:00:00 18 7 Sur 12 Sur 0 -- -- 79
2020-06-10 22:00:00 18.4 5 Sur 10 Sur 0 -- -- 80
2020-06-10 21:00:00 20.7 0 Calma 6 Norte 0 -- -- 70
2020-06-10 20:00:00 21.3 3 Norte 9 Norte 0 -- -- 68
2020-06-10 19:00:00 21.7 5 Norte 11 Noroeste 0 -- -- 67
2020-06-10 18:00:00 21.3 6 Noroeste 13 Noroeste 0 -- -- 66
2020-06-10 17:00:00 21.6 7 Norte 14 Noroeste 0 -- -- 64
2020-06-10 16:00:00 21.5 8 Noroeste 15 Oeste 0 -- -- 64
2020-06-10 15:00:00 21.8 7 Noroeste 16 Noroeste 0 -- -- 61
2020-06-10 14:00:00 21.8 8 Noroeste 14 Noroeste 0 -- -- 62
2020-06-10 13:00:00 21.1 5 Norte 14 Norte 0 -- -- 65
2020-06-10 12:00:00 21.6 6 Noroeste 12 Noroeste 0 -- -- 65
2020-06-10 11:00:00 21.2 6 Norte 13 Oeste 0 -- -- 68
2020-06-10 10:00:00 19.9 4 Noroeste 11 Noroeste 0 -- -- 71
2020-06-10 09:00:00 19.4 4 Sur 11 Sur 0 -- -- 74
2020-06-10 08:00:00 19.7 6 Sudoeste 12 Sur 0 -- -- 69
2020-06-10 07:00:00 16.2 10 Sur 13 Sur 0 -- -- 78
2020-06-10 06:00:00 16.5 10 Sur 14 Sudoeste 0 -- -- 78
2020-06-10 05:00:00 16 11 Sur 15 Sur 0 -- -- 77
2020-06-10 04:00:00 16.2 11 Sur 15 Sudoeste 0 -- -- 75
2020-06-10 03:00:00 15.5 12 Sur 15 Sur 0 -- -- 73
2020-06-10 02:00:00 15.7 10 Sur 14 Sur 0 -- -- 74
2020-06-10 01:00:00 16.6 9 Sur 13 Sur 0 -- -- 75
2020-06-10 00:00:00 17 9 Sur 16 Sudoeste 0 -- -- 69
2020-06-09 23:00:00 17.8 12 Sur 19 Sudoeste 0 -- -- 67
2020-06-09 22:00:00 17.4 10 Sur 13 Oeste 0 -- -- 71
2020-06-09 21:00:00 20.1 6 Oeste 21 Oeste 0 -- -- 57
2020-06-09 20:00:00 20.7 7 Noroeste 14 Noroeste 0 -- -- 60
2020-06-09 19:00:00 20.9 8 Noroeste 16 Norte 0 -- -- 64
2020-06-09 18:00:00 20.7 8 Noroeste 17 Norte 0 -- -- 61
2020-06-09 17:00:00 21 9 Noroeste 18 Oeste 0 -- -- 62
2020-06-09 16:00:00 20.5 10 Noroeste 23 Noroeste 0 -- -- 64
2020-06-09 15:00:00 20.4 9 Oeste 16 Oeste 0 -- -- 62
2020-06-09 14:00:00 20.7 8 Noroeste 18 Noroeste 0 -- -- 62
2020-06-09 13:00:00 20.3 7 Noroeste 13 Norte 0 -- -- 62
2020-06-09 12:00:00 19.9 6 Norte 14 Noroeste 0 -- -- 63
2020-06-09 11:00:00 19.7 7 Norte 13 Norte 0 -- -- 62
2020-06-09 10:00:00 19.7 9 Norte 18 Noroeste 0 -- -- 62
2020-06-09 09:00:00 19.7 11 Norte 15 Noroeste 0 -- -- 65
2020-06-09 08:00:00 17.9 5 Sur 10 Sur 0 -- -- 78
2020-06-09 07:00:00 16.2 6 Sur 11 Sur 0 -- -- 85
2020-06-09 06:00:00 16.2 6 Sur 12 Sur 0 -- -- 83
2020-06-09 05:00:00 15.3 8 Sur 11 Sur 0 -- -- 85
2020-06-09 04:00:00 17 4 Oeste 12 Sudoeste 0 -- -- 75
2020-06-09 03:00:00 15.5 8 Sur 13 Sur 0 -- -- 86
2020-06-09 02:00:00 15.3 9 Sur 13 Sur 0 -- -- 87
2020-06-09 01:00:00 15.3 9 Sur 13 Sur 0 -- -- 88
2020-06-09 00:00:00 15.5 9 Sur 12 Sur 0 -- -- 88
2020-06-08 23:00:00 16 6 Sur 10 Sur 0 -- -- 84
2020-06-08 22:00:00 16.9 5 Sudeste 10 Sudeste 0 -- -- 82
2020-06-08 21:00:00 20.2 0 Calma 6 Norte 0 -- -- 68
2020-06-08 20:00:00 20.3 5 Norte 12 Norte 0 -- -- 69
2020-06-08 19:00:00 18.6 4 Nordeste 13 Nordeste 0 -- -- 74
2020-06-08 18:00:00 18.9 5 Nordeste 13 Norte 0 -- -- 73
2020-06-08 17:00:00 19.2 4 Noroeste 23 Norte 0 -- -- 75
2020-06-08 16:00:00 19.2 9 Norte 18 Nordeste 0 -- -- 75
2020-06-08 15:00:00 17.9 8 Este 18 Este 0 -- -- 82
2020-06-08 14:00:00 16.7 8 Este 17 Nordeste 0.2 -- -- 86
2020-06-08 13:00:00 16.8 3 Oeste 6 Nordeste 2 -- -- 91
2020-06-08 12:00:00 16.3 2 Sudoeste 16 Oeste 8.6 -- -- 92
2020-06-08 11:00:00 16.7 6 Sudoeste 18 Este 4 -- -- 88
2020-06-08 10:00:00 19.2 8 Este 35 Sur 0 -- -- 67
2020-06-08 09:00:00 18.5 17 Sudeste 35 Sudeste 0 -- -- 69
2020-06-08 08:00:00 18.6 15 Sudeste 32 Sudeste 0 -- -- 70
2020-06-08 07:00:00 16.2 6 Sur 17 Sur 0 -- -- 86
2020-06-08 06:00:00 16.1 12 Sur 14 Sur 0 -- -- 89
2020-06-08 05:00:00 16.5 8 Sur 14 Sur 0 -- -- 88
2020-06-08 04:00:00 16.3 9 Sur 14 Sur 0 -- -- 88
2020-06-08 03:00:00 17.2 8 Sudoeste 17 Sur 0 -- -- 86
2020-06-08 02:00:00 16.7 11 Sudeste 24 Sudeste 0.2 -- -- 81
2020-06-08 01:00:00 16.7 9 Sudeste 19 Sudeste 3.8 -- -- 90
2020-06-08 00:00:00 16.4 9 Sudeste 31 Este 17.4 -- -- 92
2020-06-07 23:00:00 18.9 31 Norte 49 Norte 0 -- -- 83
2020-06-07 22:00:00 20.9 4 Nordeste 21 Nordeste 0 -- -- 73
2020-06-07 21:00:00 20.5 11 Nordeste 28 Nordeste 0 -- -- 78
2020-06-07 20:00:00 20.7 13 Nordeste 23 Nordeste 0 -- -- 79
2020-06-07 19:00:00 21.4 15 Nordeste 29 Norte 0 -- -- 75
2020-06-07 18:00:00 21.4 17 Nordeste 31 Nordeste 0 -- -- 78
2020-06-07 17:00:00 23.5 10 Nordeste 27 Nordeste 0 -- -- 53
2020-06-07 16:00:00 22.3 11 Nordeste 41 Nordeste 0 -- -- 65
2020-06-07 15:00:00 20.1 26 Nordeste 54 Norte 0 -- -- 82
2020-06-07 14:00:00 22.1 16 Nordeste 25 Nordeste 0 -- -- 81
2020-06-07 13:00:00 21.9 15 Nordeste 24 Nordeste 0 -- -- 83
2020-06-07 12:00:00 22.2 10 Norte 17 Norte 0 -- -- 77
2020-06-07 11:00:00 22 10 Nordeste 18 Nordeste 0 -- -- 79
2020-06-07 10:00:00 20.6 6 Nordeste 15 Sudoeste 0 -- -- 85
2020-06-07 09:00:00 20.2 7 Sudeste 23 Este 1 -- -- 84
2020-06-07 08:00:00 20 8 Sudeste 18 Sudeste 1.8 -- -- 88
2020-06-07 07:00:00 18.4 9 Sur 24 Sudeste 0.4 -- -- 88
2020-06-07 06:00:00 19.6 8 Este 32 Sudeste 1.8 -- -- 83
2020-06-07 05:00:00 20.6 3 Oeste 15 Sur 0 -- -- 71
2020-06-07 04:00:00 21.2 8 Sudoeste 14 Sudoeste 0 -- -- 67
2020-06-07 03:00:00 20.6 10 Sudoeste 23 Este 0 -- -- 67
2020-06-07 02:00:00 21.2 6 Sur 10 Sur 0 -- -- 54
2020-06-07 01:00:00 21.5 4 Sudeste 17 Sudeste 0 -- -- 53
2020-06-07 00:00:00 21.2 8 Sur 15 Sudoeste 0 -- -- 62